createdAt,value
2019-04-30T00:01:54.978Z,6.76
2019-04-30T00:04:45.166Z,6.71
2019-04-30T00:07:19.007Z,6.68
2019-04-30T00:09:53.915Z,6.71
2019-04-30T00:12:25.741Z,6.58
2019-04-30T00:14:57.867Z,6.62
2019-04-30T00:17:31.393Z,6.58
2019-04-30T00:20:05.218Z,6.60
2019-04-30T00:22:39.385Z,6.54
2019-04-30T00:25:10.972Z,6.50
2019-04-30T00:27:42.288Z,6.49
2019-04-30T00:30:15.475Z,6.44
2019-04-30T00:32:47.524Z,6.47
2019-04-30T00:35:19.803Z,6.38
2019-04-30T00:37:56.400Z,6.27
2019-04-30T00:40:26.645Z,6.31
2019-04-30T00:43:00.213Z,6.30
2019-04-30T00:45:32.296Z,6.26
2019-04-30T00:48:06.048Z,6.10
2019-04-30T00:50:38.023Z,6.07
2019-04-30T00:53:12.357Z,6.11
2019-04-30T00:55:46.790Z,6.13
2019-04-30T00:58:25.088Z,6.06
2019-04-30T01:01:17.956Z,5.90
2019-04-30T01:03:57.354Z,5.85
2019-04-30T01:06:29.411Z,5.92
2019-04-30T01:09:05.439Z,5.93
2019-04-30T01:11:39.756Z,5.81
2019-04-30T01:14:30.725Z,5.82
2019-04-30T01:17:03.840Z,5.81
2019-04-30T01:19:35.072Z,5.72
2019-04-30T01:22:08.961Z,5.76
2019-04-30T01:24:41.141Z,5.66
2019-04-30T01:27:13.105Z,5.68
2019-04-30T01:29:46.095Z,5.62
2019-04-30T01:32:21.062Z,5.58
2019-04-30T01:34:53.796Z,5.55
2019-04-30T01:37:28.818Z,5.46
2019-04-30T01:39:58.942Z,5.55
2019-04-30T01:42:31.764Z,5.53
2019-04-30T01:45:02.988Z,5.46
2019-04-30T01:47:34.928Z,5.41
2019-04-30T01:50:09.120Z,5.43
2019-04-30T01:52:53.585Z,5.46
2019-04-30T01:55:34.327Z,5.39
2019-04-30T01:58:21.502Z,5.33
2019-04-30T02:01:00.205Z,5.41
2019-04-30T02:03:32.066Z,5.33
2019-04-30T02:06:04.035Z,5.27
2019-04-30T02:08:35.871Z,5.36
2019-04-30T02:11:09.041Z,5.29
2019-04-30T02:13:41.105Z,5.30
2019-04-30T02:16:13.010Z,5.26
2019-04-30T02:18:44.985Z,5.22
2019-04-30T02:21:16.218Z,5.13
2019-04-30T02:23:49.167Z,5.08
2019-04-30T02:26:20.846Z,4.99
2019-04-30T02:28:52.703Z,4.90
2019-04-30T02:31:24.610Z,4.88
2019-04-30T02:34:02.283Z,4.75
2019-04-30T02:36:59.234Z,4.80
2019-04-30T02:39:31.177Z,4.78
2019-04-30T02:42:03.701Z,4.70
2019-04-30T02:44:36.537Z,4.60
2019-04-30T02:47:12.138Z,4.57
2019-04-30T02:49:46.496Z,4.57
2019-04-30T02:52:19.976Z,4.51
2019-04-30T02:54:56.248Z,4.44
2019-04-30T02:57:29.968Z,4.45
2019-04-30T03:00:20.867Z,4.39
2019-04-30T03:02:53.122Z,4.34
2019-04-30T03:05:24.985Z,4.33
2019-04-30T03:07:56.957Z,4.34
2019-04-30T03:10:30.397Z,4.31
2019-04-30T03:13:02.464Z,4.31
2019-04-30T03:15:33.787Z,4.19
2019-04-30T03:18:30.402Z,4.19
2019-04-30T03:21:20.991Z,4.23
2019-04-30T03:23:52.202Z,4.16
2019-04-30T03:26:24.114Z,4.23
2019-04-30T03:28:56.080Z,4.09
2019-04-30T03:31:32.038Z,4.12
2019-04-30T03:34:02.315Z,4.12
2019-04-30T03:36:33.811Z,4.07
2019-04-30T03:39:10.306Z,4.02
2019-04-30T03:41:41.215Z,4.11
2019-04-30T03:44:21.509Z,4.14
2019-04-30T03:46:46.313Z,4.17
2019-04-30T03:49:20.285Z,4.21
2019-04-30T03:51:51.699Z,4.30
2019-04-30T03:54:23.572Z,4.41
2019-04-30T03:57:00.809Z,4.43
2019-04-30T03:59:33.030Z,4.48
2019-04-30T04:02:16.629Z,4.50
2019-04-30T04:04:56.236Z,4.58
2019-04-30T04:07:46.437Z,4.62
2019-04-30T04:11:25.668Z,4.69
2019-04-30T04:13:59.716Z,4.72
2019-04-30T04:16:32.575Z,4.87
2019-04-30T04:19:03.836Z,4.94
2019-04-30T04:21:35.781Z,5.11
2019-04-30T04:24:10.427Z,5.14
2019-04-30T04:26:43.804Z,5.25
2019-04-30T04:29:14.756Z,5.33
2019-04-30T04:31:49.761Z,5.34
2019-04-30T04:34:19.873Z,5.32
2019-04-30T04:36:51.917Z,5.30
2019-04-30T04:39:23.780Z,5.41
2019-04-30T04:41:55.932Z,5.50
2019-04-30T04:44:29.454Z,5.52
2019-04-30T04:47:01.407Z,5.56
2019-04-30T04:49:32.660Z,5.45
2019-04-30T04:52:04.491Z,5.54
2019-04-30T04:54:36.455Z,5.56
2019-04-30T04:57:14.848Z,5.71
2019-04-30T04:59:42.510Z,5.81
2019-04-30T05:02:32.767Z,5.81
2019-04-30T05:05:05.436Z,5.97
2019-04-30T05:07:39.721Z,6.09
2019-04-30T05:10:12.199Z,6.28
2019-04-30T05:12:44.135Z,6.41
2019-04-30T05:15:16.346Z,6.52
2019-04-30T05:17:49.413Z,6.62
2019-04-30T05:20:21.607Z,6.70
2019-04-30T05:22:53.477Z,6.57
2019-04-30T05:25:24.733Z,6.69
2019-04-30T05:27:56.172Z,6.83
2019-04-30T05:30:29.365Z,6.96
2019-04-30T05:33:00.787Z,6.99
2019-04-30T05:35:32.131Z,6.96
2019-04-30T05:38:04.023Z,7.06
2019-04-30T05:40:35.968Z,7.20
2019-04-30T05:43:08.727Z,7.24
2019-04-30T05:45:40.621Z,7.35
2019-04-30T05:48:12.491Z,7.43
2019-04-30T05:50:43.831Z,7.49
2019-04-30T05:53:15.645Z,7.53
2019-04-30T05:55:49.311Z,7.46
2019-04-30T05:58:22.188Z,7.25
2019-04-30T06:00:55.218Z,7.23
2019-04-30T06:03:30.722Z,7.07
2019-04-30T06:06:00.058Z,6.85
2019-04-30T06:08:39.342Z,6.51
2019-04-30T06:11:22.306Z,6.74
2019-04-30T06:14:11.309Z,6.63
2019-04-30T06:16:44.808Z,6.66
2019-04-30T06:19:16.695Z,6.69
2019-04-30T06:21:49.203Z,6.16
2019-04-30T06:24:22.124Z,6.39
2019-04-30T06:26:54.081Z,6.66
2019-04-30T06:29:26.210Z,6.74
2019-04-30T06:31:59.219Z,6.78
2019-04-30T06:34:32.313Z,6.81
2019-04-30T06:37:04.788Z,7.00
2019-04-30T06:39:38.581Z,6.75
2019-04-30T06:42:12.815Z,7.14
2019-04-30T06:44:44.495Z,7.25
2019-04-30T06:47:18.788Z,7.16
2019-04-30T06:49:50.995Z,7.38
2019-04-30T06:52:23.702Z,7.53
2019-04-30T06:54:55.666Z,7.50
2019-04-30T06:57:29.410Z,7.73
2019-04-30T07:00:01.094Z,7.82
2019-04-30T07:02:33.074Z,7.91
2019-04-30T07:05:05.438Z,7.92
2019-04-30T07:07:41.578Z,7.83
2019-04-30T07:10:23.726Z,7.78
2019-04-30T07:13:20.545Z,7.83
2019-04-30T07:15:52.477Z,8.26
2019-04-30T07:18:24.349Z,8.58
2019-04-30T07:20:56.231Z,8.67
2019-04-30T07:23:28.583Z,8.76
2019-04-30T07:25:59.934Z,8.82
2019-04-30T07:31:11.679Z,8.56
2019-04-30T07:33:39.660Z,8.99
2019-04-30T07:36:11.776Z,9.47
2019-04-30T07:38:51.731Z,9.84
2019-04-30T07:41:18.881Z,9.97
2019-04-30T07:43:50.300Z,10.24
2019-04-30T07:46:22.188Z,10.20
2019-04-30T07:48:54.168Z,10.43
2019-04-30T07:51:26.620Z,10.28
2019-04-30T07:53:59.738Z,10.45
2019-04-30T07:56:37.682Z,10.55
2019-04-30T07:59:06.431Z,10.72
2019-04-30T08:01:58.099Z,10.68
2019-04-30T08:04:31.869Z,10.61
2019-04-30T08:07:04.692Z,11.05
2019-04-30T08:09:36.921Z,8.63
2019-04-30T08:09:39.677Z,11.43
2019-04-30T08:12:11.152Z,11.46
2019-04-30T08:14:43.919Z,11.46
2019-04-30T08:17:15.972Z,11.29
2019-04-30T08:20:08.787Z,11.45
2019-04-30T08:22:41.180Z,11.40
2019-04-30T08:25:13.178Z,10.95
2019-04-30T08:27:44.999Z,10.94
2019-04-30T08:30:23.941Z,11.11
2019-04-30T08:32:50.118Z,11.00
2019-04-30T08:35:22.025Z,11.44
2019-04-30T08:37:54.009Z,11.62
2019-04-30T08:40:25.182Z,11.99
2019-04-30T08:42:59.328Z,11.67
2019-04-30T08:45:34.425Z,11.64
2019-04-30T08:48:04.204Z,11.90
2019-04-30T08:50:36.058Z,11.76
2019-04-30T08:53:08.579Z,11.62
2019-04-30T08:55:41.698Z,11.52
2019-04-30T08:58:15.201Z,11.57
2019-04-30T09:00:48.466Z,11.92
2019-04-30T09:03:22.785Z,11.92
2019-04-30T09:06:05.050Z,12.02
2019-04-30T09:08:40.042Z,12.15
2019-04-30T09:11:22.590Z,12.17
2019-04-30T09:13:44.704Z,12.38
2019-04-30T09:16:16.659Z,12.37
2019-04-30T09:18:50.259Z,12.43
2019-04-30T09:21:22.227Z,12.66
2019-04-30T09:23:56.180Z,12.91
2019-04-30T09:26:29.053Z,13.01
2019-04-30T09:29:01.155Z,13.13
2019-04-30T09:31:32.976Z,13.07
2019-04-30T09:34:15.153Z,12.82
2019-04-30T09:36:39.143Z,13.16
2019-04-30T09:39:12.514Z,13.21
2019-04-30T09:41:44.453Z,13.43
2019-04-30T09:44:16.321Z,13.31
2019-04-30T09:46:48.948Z,13.53
2019-04-30T09:49:20.309Z,13.62
2019-04-30T09:51:52.337Z,13.73
2019-04-30T09:54:24.634Z,13.75
2019-04-30T09:56:58.871Z,13.99
2019-04-30T09:59:30.445Z,13.93
2019-04-30T10:02:02.302Z,13.86
2019-04-30T10:04:34.605Z,13.93
2019-04-30T10:07:06.043Z,14.00
2019-04-30T10:09:38.009Z,14.25
2019-04-30T10:12:13.034Z,14.21
2019-04-30T10:14:45.039Z,14.30
2019-04-30T10:17:38.071Z,14.18
2019-04-30T10:20:13.403Z,14.33
2019-04-30T10:22:45.313Z,14.26
2019-04-30T10:25:17.151Z,14.26
2019-04-30T10:27:49.756Z,14.39
2019-04-30T10:30:26.274Z,14.49
2019-04-30T10:32:59.567Z,14.40
2019-04-30T10:35:30.906Z,14.48
2019-04-30T10:38:23.109Z,14.76
2019-04-30T10:40:58.730Z,14.77
2019-04-30T10:43:32.164Z,14.76
2019-04-30T10:46:05.280Z,14.70
2019-04-30T10:48:40.007Z,14.98
2019-04-30T10:51:12.041Z,14.99
2019-04-30T10:53:48.594Z,15.03
2019-04-30T10:56:21.881Z,15.00
2019-04-30T10:58:53.873Z,14.96
2019-04-30T11:01:25.946Z,15.18
2019-04-30T11:03:58.109Z,15.24
2019-04-30T11:06:30.004Z,15.20
2019-04-30T11:09:11.078Z,15.14
2019-04-30T11:11:43.163Z,15.27
2019-04-30T11:14:19.018Z,15.39
2019-04-30T11:16:51.634Z,15.54
2019-04-30T11:19:24.000Z,15.48
2019-04-30T11:22:13.630Z,15.55
2019-04-30T11:24:56.582Z,15.53
2019-04-30T11:27:20.681Z,15.68
2019-04-30T11:30:01.511Z,15.75
2019-04-30T11:32:29.277Z,15.92
2019-04-30T11:35:01.186Z,15.83
2019-04-30T11:37:33.197Z,15.83
2019-04-30T11:40:05.520Z,15.92
2019-04-30T11:42:37.400Z,16.05
2019-04-30T11:45:09.363Z,16.09
2019-04-30T11:47:40.622Z,16.10
2019-04-30T11:50:15.146Z,16.11
2019-04-30T11:57:14.614Z,16.24
2019-04-30T12:00:14.373Z,16.25
2019-04-30T12:02:45.688Z,16.38
2019-04-30T12:05:26.378Z,16.36
2019-04-30T12:08:21.509Z,16.36
2019-04-30T12:14:54.186Z,16.43
2019-04-30T12:18:15.306Z,16.45
2019-04-30T12:20:24.440Z,16.49
2019-04-30T12:22:59.075Z,16.51
2019-04-30T12:25:31.216Z,16.52
2019-04-30T12:28:02.660Z,16.56
2019-04-30T12:30:36.572Z,16.58
2019-04-30T12:33:35.655Z,16.79
2019-04-30T12:35:50.840Z,16.94
2019-04-30T12:38:21.995Z,16.94
2019-04-30T12:41:07.948Z,16.92
2019-04-30T12:43:58.482Z,17.06
2019-04-30T12:47:25.376Z,17.13
2019-04-30T12:50:44.570Z,17.12
2019-04-30T12:53:26.522Z,17.16
2019-04-30T12:56:16.888Z,17.09
2019-04-30T13:00:16.492Z,17.15
2019-04-30T13:02:29.012Z,17.24
2019-04-30T13:12:39.611Z,17.47
2019-04-30T13:15:19.877Z,17.64
2019-04-30T13:18:24.485Z,17.63
2019-04-30T13:21:11.875Z,17.77
2019-04-30T13:35:42.212Z,18.27
2019-04-30T13:38:47.441Z,18.39
2019-04-30T13:41:38.685Z,18.56
2019-04-30T13:44:13.025Z,18.59
2019-04-30T13:46:44.232Z,18.67
2019-04-30T13:49:16.147Z,18.66
2019-04-30T13:51:47.367Z,18.74
2019-04-30T13:54:18.511Z,18.77
2019-04-30T13:56:51.333Z,18.90
2019-04-30T13:59:22.556Z,18.69
2019-04-30T14:01:54.883Z,18.49
2019-04-30T14:04:39.057Z,18.44
2019-04-30T14:07:19.417Z,18.46
2019-04-30T14:09:52.478Z,18.42
2019-04-30T14:12:24.583Z,18.30
2019-04-30T14:14:55.747Z,18.00
2019-04-30T14:17:29.656Z,18.02
2019-04-30T14:20:00.956Z,18.28
2019-04-30T14:22:34.939Z,18.52
2019-04-30T14:25:07.439Z,18.46
2019-04-30T14:27:49.037Z,18.58
2019-04-30T14:30:12.779Z,18.51
2019-04-30T14:32:45.003Z,18.44
2019-04-30T14:35:18.673Z,18.27
2019-04-30T14:37:51.235Z,18.72
2019-04-30T14:40:23.887Z,18.71
2019-04-30T14:43:11.371Z,18.71
2019-04-30T14:46:05.464Z,18.48
2019-04-30T14:48:47.034Z,18.19
2019-04-30T14:51:19.436Z,18.44
2019-04-30T14:54:05.011Z,18.53
2019-04-30T14:56:41.223Z,18.28
2019-04-30T14:59:39.042Z,18.30
2019-04-30T15:02:33.595Z,18.34
2019-04-30T15:05:06.379Z,18.37
2019-04-30T15:07:39.564Z,18.28
2019-04-30T15:10:11.678Z,18.32
2019-04-30T15:12:42.943Z,18.22
2019-04-30T15:15:16.379Z,18.33
2019-04-30T15:17:49.332Z,18.20
2019-04-30T15:20:22.474Z,18.16
2019-04-30T15:23:21.259Z,18.15
2019-04-30T15:25:50.852Z,17.98
2019-04-30T15:28:22.948Z,18.09
2019-04-30T15:30:54.439Z,18.19
2019-04-30T15:34:03.268Z,18.22
2019-04-30T15:36:35.327Z,18.08
2019-04-30T15:39:33.235Z,18.06
2019-04-30T15:42:05.660Z,18.16
2019-04-30T15:44:45.185Z,18.30
2019-04-30T15:47:11.616Z,18.22
2019-04-30T15:49:43.666Z,18.42
2019-04-30T15:52:14.898Z,18.52
2019-04-30T15:54:48.954Z,18.54
2019-04-30T15:57:20.878Z,18.41
2019-04-30T15:59:53.186Z,18.25
2019-04-30T16:02:53.451Z,18.13
2019-04-30T16:05:29.862Z,18.22
2019-04-30T16:08:11.295Z,18.19
2019-04-30T16:11:00.416Z,18.06
2019-04-30T16:13:36.723Z,18.24
2019-04-30T16:16:09.322Z,18.31
2019-04-30T16:18:49.361Z,18.30
2019-04-30T16:21:22.813Z,18.19
2019-04-30T16:23:54.796Z,18.19
2019-04-30T16:26:26.396Z,18.10
2019-04-30T16:28:58.599Z,17.99
2019-04-30T16:31:29.895Z,18.00
2019-04-30T16:34:01.138Z,18.06
2019-04-30T16:36:33.487Z,18.27
2019-04-30T16:39:08.744Z,18.21
2019-04-30T16:41:41.963Z,18.16
2019-04-30T16:44:13.289Z,17.97
2019-04-30T16:46:45.203Z,17.97
2019-04-30T16:49:17.324Z,17.83
2019-04-30T16:51:50.071Z,17.67
2019-04-30T16:54:22.074Z,17.37
2019-04-30T16:57:03.436Z,17.44
2019-04-30T16:59:33.450Z,17.34
2019-04-30T17:02:04.922Z,17.25
2019-04-30T17:04:42.203Z,17.17
2019-04-30T17:07:35.462Z,17.16
2019-04-30T17:10:24.231Z,17.10
2019-04-30T17:13:15.046Z,17.04
2019-04-30T17:15:47.484Z,16.98
2019-04-30T17:18:19.131Z,16.95
2019-04-30T17:20:50.343Z,17.25
2019-04-30T17:23:23.766Z,17.34
2019-04-30T17:25:55.019Z,17.21
2019-04-30T17:28:28.477Z,17.50
2019-04-30T17:31:00.175Z,17.29
2019-04-30T17:33:32.178Z,17.56
2019-04-30T17:36:03.503Z,17.50
2019-04-30T17:38:35.445Z,17.40
2019-04-30T17:41:06.778Z,17.16
2019-04-30T17:43:39.507Z,17.35
2019-04-30T17:46:12.745Z,17.31
2019-04-30T17:48:44.305Z,17.08
2019-04-30T17:51:15.630Z,16.97
2019-04-30T17:54:12.844Z,16.75
2019-04-30T17:56:46.384Z,16.55
2019-04-30T17:59:17.619Z,16.49
2019-04-30T18:01:59.490Z,16.42
2019-04-30T18:04:30.786Z,16.15
2019-04-30T18:07:03.227Z,15.93
2019-04-30T18:09:45.190Z,15.87
2019-04-30T18:12:23.796Z,15.80
2019-04-30T18:15:02.962Z,15.49
2019-04-30T18:17:45.938Z,15.38
2019-04-30T18:20:26.447Z,15.34
2019-04-30T18:23:25.646Z,15.21
2019-04-30T18:26:04.598Z,15.07
2019-04-30T18:28:35.983Z,14.84
2019-04-30T18:31:08.904Z,14.55
2019-04-30T18:33:42.725Z,14.35
2019-04-30T18:36:17.265Z,14.33
2019-04-30T18:38:50.256Z,14.19
2019-04-30T18:41:21.726Z,14.11
2019-04-30T18:43:53.281Z,13.95
2019-04-30T18:46:24.660Z,14.07
2019-04-30T18:48:57.017Z,13.92
2019-04-30T18:51:36.545Z,13.80
2019-04-30T18:54:02.162Z,13.69
2019-04-30T18:56:33.883Z,13.66
2019-04-30T18:59:08.667Z,13.65
2019-04-30T19:01:41.470Z,13.48
2019-04-30T19:04:13.708Z,13.30
2019-04-30T19:06:46.223Z,13.25
2019-04-30T19:09:31.501Z,13.22
2019-04-30T19:12:30.959Z,13.18
2019-04-30T19:15:22.206Z,13.06
2019-04-30T19:18:30.774Z,12.79
2019-04-30T19:21:05.724Z,12.53
2019-04-30T19:23:39.037Z,12.47
2019-04-30T19:26:10.809Z,12.28
2019-04-30T19:28:42.419Z,12.14
2019-04-30T19:31:15.918Z,12.04
2019-04-30T19:33:48.928Z,12.06
2019-04-30T19:36:33.919Z,11.85
2019-04-30T19:38:54.360Z,11.77
2019-04-30T19:41:28.682Z,11.69
2019-04-30T19:44:00.417Z,11.70
2019-04-30T19:46:33.086Z,11.69
2019-04-30T19:49:04.711Z,11.64
2019-04-30T19:51:36.480Z,11.64
2019-04-30T19:54:11.345Z,11.59
2019-04-30T19:56:42.743Z,11.52
2019-04-30T19:59:14.650Z,11.44
2019-04-30T20:01:48.826Z,11.29
2019-04-30T20:04:32.818Z,11.20
2019-04-30T20:06:53.881Z,11.19
2019-04-30T20:09:25.797Z,11.14
2019-04-30T20:11:59.613Z,10.91
2019-04-30T20:14:31.222Z,10.77
2019-04-30T20:17:02.952Z,10.68
2019-04-30T20:19:34.414Z,10.70
2019-04-30T20:22:06.107Z,10.48
2019-04-30T20:24:39.405Z,10.29
2019-04-30T20:27:12.407Z,10.18
2019-04-30T20:29:44.337Z,10.03
2019-04-30T20:32:17.359Z,9.78
2019-04-30T20:34:49.874Z,9.63
2019-04-30T20:37:21.304Z,9.46
2019-04-30T20:39:58.766Z,9.33
2019-04-30T20:42:30.424Z,9.17
2019-04-30T20:45:03.771Z,8.96
2019-04-30T20:47:34.932Z,8.77
2019-04-30T20:50:06.786Z,8.72
2019-04-30T20:52:38.972Z,8.87
2019-04-30T20:55:11.270Z,8.95
2019-04-30T20:57:42.632Z,8.91
2019-04-30T21:00:15.532Z,8.81
2019-04-30T21:02:48.612Z,8.81
2019-04-30T21:05:20.810Z,8.77
2019-04-30T21:07:53.107Z,8.59
2019-04-30T21:10:24.772Z,8.64
2019-04-30T21:12:57.072Z,8.48
2019-04-30T21:15:31.018Z,8.35
2019-04-30T21:18:02.252Z,8.12
2019-04-30T21:20:33.856Z,8.00
2019-04-30T21:23:05.907Z,7.86
2019-04-30T21:25:38.782Z,7.78
2019-04-30T21:28:10.546Z,7.71
2019-04-30T21:30:41.970Z,7.66
2019-04-30T21:33:22.734Z,7.49
2019-04-30T21:36:01.071Z,7.37
2019-04-30T21:38:32.775Z,7.25
2019-04-30T21:41:04.710Z,7.13
2019-04-30T21:43:36.279Z,7.06
2019-04-30T21:46:09.385Z,7.03
2019-04-30T21:48:41.410Z,7.04
2019-04-30T21:51:13.013Z,7.01
2019-04-30T21:53:45.417Z,6.91
2019-04-30T21:56:17.103Z,6.94
2019-04-30T21:58:48.655Z,6.92
2019-04-30T22:01:26.311Z,6.77
2019-04-30T22:03:59.838Z,6.56
2019-04-30T22:06:33.493Z,6.46
2019-04-30T22:09:07.101Z,6.46
2019-04-30T22:11:40.316Z,6.46
2019-04-30T22:14:12.201Z,6.49
2019-04-30T22:16:44.419Z,6.52
2019-04-30T22:19:16.036Z,6.49
2019-04-30T22:21:49.478Z,6.42
2019-04-30T22:24:20.609Z,6.44
2019-04-30T22:26:53.824Z,6.49
2019-04-30T22:29:38.410Z,6.62
2019-04-30T22:31:59.372Z,6.78
2019-04-30T22:34:30.595Z,6.94
2019-04-30T22:37:02.918Z,7.10
2019-04-30T22:39:41.810Z,7.18
2019-04-30T22:42:34.095Z,7.30
2019-04-30T22:45:09.100Z,7.42
2019-04-30T22:47:40.330Z,7.57
2019-04-30T22:50:11.967Z,7.70
2019-04-30T22:52:44.185Z,7.86
2019-04-30T22:55:16.535Z,7.99
2019-04-30T22:57:49.480Z,8.14
2019-04-30T23:00:27.213Z,8.21
2019-04-30T23:03:04.939Z,8.23
2019-04-30T23:05:36.847Z,8.24
2019-04-30T23:08:09.034Z,8.28
2019-04-30T23:10:40.464Z,8.28
2019-04-30T23:13:12.408Z,8.30
2019-04-30T23:15:44.307Z,8.28
2019-04-30T23:18:16.040Z,8.27
2019-04-30T23:20:47.956Z,8.28
2019-04-30T23:23:20.199Z,8.32
2019-04-30T23:25:51.583Z,8.46
2019-04-30T23:28:23.873Z,8.63
2019-04-30T23:30:55.195Z,8.76
2019-04-30T23:33:27.511Z,8.85
2019-04-30T23:35:59.394Z,8.92
2019-04-30T23:38:30.761Z,8.86
2019-04-30T23:41:02.512Z,8.85
2019-04-30T23:43:33.723Z,8.86
2019-04-30T23:46:06.098Z,8.86
2019-04-30T23:48:37.941Z,8.86
2019-04-30T23:51:09.291Z,8.87
2019-04-30T23:53:41.408Z,8.88
2019-04-30T23:56:12.740Z,8.91
2019-04-30T23:58:44.662Z,8.97
